METAR LSZS 261520Z 27004KT 220V360 9999 FEW050 15/01 Q1021 RMK T